Terminal Aerodrome Forecast
Issued by NWS Jackson, KY

Home | Current Version | Previous Version | Text Only | Print | Product List | Glossary On
Versions: 1 2 3 4 5 6 7 8 9 10 11 12 13
419
FTUS43 KJKL 280528
TAFJKL
TAF
KJKL 280528Z 2806/0106 00000KT P6SM FEW250
     FM281400 18004KT P6SM VCSH BKN060
     FM281700 19009KT 4SM -SHRA OVC040
     FM282300 20006KT P6SM OVC015
     FM010300 20008KT P6SM OVC025 WS020/21040KT=

USA.gov is the U.S. government's official web portal to all federal, state and local government web resources and services.